createdAt,value
2022-11-22T00:00:50.935Z,12.50
2022-11-22T00:03:19.235Z,12.50
2022-11-22T00:05:48.723Z,12.50
2022-11-22T00:08:16.556Z,12.50
2022-11-22T00:10:44.307Z,12.50
2022-11-22T00:13:12.102Z,12.50
2022-11-22T00:15:39.967Z,12.50
2022-11-22T00:18:08.319Z,12.50
2022-11-22T00:20:36.329Z,12.50
2022-11-22T00:23:06.321Z,12.50
2022-11-22T00:25:34.574Z,12.50
2022-11-22T00:28:02.419Z,12.60
2022-11-22T00:30:30.505Z,12.60
2022-11-22T00:32:58.283Z,12.60
2022-11-22T00:35:26.046Z,12.60
2022-11-22T00:37:53.943Z,12.60
2022-11-22T00:40:23.498Z,12.60
2022-11-22T00:42:51.445Z,12.50
2022-11-22T00:45:19.902Z,12.60
2022-11-22T00:47:47.881Z,12.60
2022-11-22T00:50:16.368Z,12.60
2022-11-22T00:52:44.278Z,12.60
2022-11-22T00:55:12.820Z,12.60
2022-11-22T00:57:42.208Z,12.60
2022-11-22T01:00:11.407Z,12.60
2022-11-22T01:02:39.272Z,12.60
2022-11-22T01:05:07.575Z,12.60
2022-11-22T01:07:35.408Z,12.60
2022-11-22T01:10:03.275Z,12.60
2022-11-22T01:12:31.515Z,12.60
2022-11-22T01:15:00.898Z,12.60
2022-11-22T01:17:29.377Z,12.60
2022-11-22T01:19:57.363Z,12.60
2022-11-22T01:22:25.258Z,12.60
2022-11-22T01:24:53.087Z,12.60
2022-11-22T01:27:21.116Z,12.60
2022-11-22T01:29:48.858Z,12.60
2022-11-22T01:32:18.260Z,12.60
2022-11-22T01:34:46.352Z,12.60
2022-11-22T01:37:15.751Z,12.60
2022-11-22T01:39:43.631Z,12.60
2022-11-22T01:42:12.030Z,12.60
2022-11-22T01:44:41.148Z,12.60
2022-11-22T01:47:11.744Z,12.60
2022-11-22T01:49:42.720Z,12.60
2022-11-22T01:52:13.249Z,12.60
2022-11-22T01:54:41.829Z,12.60
2022-11-22T01:57:11.747Z,12.50
2022-11-22T01:59:40.856Z,12.50
2022-11-22T02:02:08.829Z,12.50
2022-11-22T02:04:36.702Z,12.50
2022-11-22T02:07:08.409Z,12.50
2022-11-22T02:09:36.253Z,12.50
2022-11-22T02:12:06.307Z,12.60
2022-11-22T02:14:34.246Z,12.50
2022-11-22T02:17:02.143Z,12.50
2022-11-22T02:19:35.226Z,12.50
2022-11-22T02:22:05.288Z,12.50
2022-11-22T02:24:37.422Z,12.50
2022-11-22T02:27:06.958Z,12.50
2022-11-22T02:29:34.913Z,12.50
2022-11-22T02:32:03.044Z,12.50
2022-11-22T02:34:31.443Z,12.50
2022-11-22T02:36:59.620Z,12.50
2022-11-22T02:39:29.722Z,12.50
2022-11-22T02:41:57.860Z,12.50
2022-11-22T02:44:27.323Z,12.50
2022-11-22T02:46:56.106Z,12.50
2022-11-22T02:49:25.128Z,12.50
2022-11-22T02:51:53.148Z,12.50
2022-11-22T02:54:21.055Z,12.50
2022-11-22T02:56:48.809Z,12.50
2022-11-22T02:59:16.582Z,12.50
2022-11-22T03:01:46.474Z,12.50
2022-11-22T03:04:24.776Z,12.50
2022-11-22T03:06:56.828Z,12.50
2022-11-22T03:09:24.703Z,12.50
2022-11-22T03:11:53.207Z,12.50
2022-11-22T03:14:21.097Z,12.50
2022-11-22T03:16:50.527Z,12.50
2022-11-22T03:19:18.566Z,12.50
2022-11-22T03:21:46.620Z,12.50
2022-11-22T03:24:14.554Z,12.50
2022-11-22T03:26:42.888Z,12.50
2022-11-22T03:29:10.651Z,12.50
2022-11-22T03:31:40.180Z,12.50
2022-11-22T03:34:09.406Z,12.50
2022-11-22T03:36:37.532Z,12.50
2022-11-22T03:39:05.401Z,12.50
2022-11-22T03:41:33.184Z,12.40
2022-11-22T03:44:00.947Z,12.50
2022-11-22T03:46:28.697Z,12.40
2022-11-22T03:48:56.475Z,12.40
2022-11-22T03:51:25.630Z,12.50
2022-11-22T03:53:53.390Z,12.50
2022-11-22T03:56:21.175Z,12.40
2022-11-22T03:58:49.331Z,12.40
2022-11-22T04:01:17.240Z,12.50
2022-11-22T04:03:45.580Z,12.50
2022-11-22T04:06:13.477Z,12.50
2022-11-22T04:08:43.359Z,12.50
2022-11-22T04:11:12.280Z,12.40
2022-11-22T04:13:57.945Z,12.50
2022-11-22T04:16:25.981Z,12.50
2022-11-22T04:18:54.347Z,12.50
2022-11-22T04:21:36.643Z,12.50
2022-11-22T04:24:24.947Z,12.50
2022-11-22T04:26:52.793Z,12.40
2022-11-22T04:29:21.181Z,12.40
2022-11-22T04:32:06.560Z,12.50
2022-11-22T04:34:35.306Z,12.40
2022-11-22T04:37:03.143Z,12.50
2022-11-22T04:39:32.907Z,12.50
2022-11-22T04:42:18.686Z,12.50
2022-11-22T04:44:47.303Z,12.50
2022-11-22T04:47:39.042Z,12.50
2022-11-22T04:50:29.665Z,12.50
2022-11-22T04:52:57.586Z,12.40
2022-11-22T04:55:27.782Z,12.50
2022-11-22T04:57:59.476Z,12.50
2022-11-22T05:00:28.627Z,12.40
2022-11-22T05:02:56.550Z,12.50
2022-11-22T05:05:24.903Z,12.50
2022-11-22T05:07:52.789Z,12.40
2022-11-22T05:10:26.170Z,12.40
2022-11-22T05:12:55.912Z,12.50
2022-11-22T05:15:24.189Z,12.50
2022-11-22T05:17:52.223Z,12.50
2022-11-22T05:20:20.441Z,12.40
2022-11-22T05:23:05.792Z,12.50
2022-11-22T05:25:33.971Z,12.50
2022-11-22T05:28:03.666Z,12.40
2022-11-22T05:30:31.487Z,12.40
2022-11-22T05:32:59.727Z,12.40
2022-11-22T05:35:27.565Z,12.40
2022-11-22T05:37:57.227Z,12.40
2022-11-22T05:40:25.035Z,12.50
2022-11-22T05:42:53.210Z,12.40
2022-11-22T05:45:22.372Z,12.40
2022-11-22T05:47:50.164Z,12.50
2022-11-22T05:50:18.085Z,12.40
2022-11-22T05:52:46.356Z,12.50
2022-11-22T05:55:14.147Z,12.50
2022-11-22T05:57:42.300Z,12.50
2022-11-22T06:00:11.028Z,12.50
2022-11-22T06:02:40.732Z,12.50
2022-11-22T06:05:09.784Z,12.50
2022-11-22T06:07:38.513Z,12.50
2022-11-22T06:10:07.160Z,12.50
2022-11-22T06:12:35.272Z,12.50
2022-11-22T06:15:03.915Z,12.50
2022-11-22T06:17:31.940Z,12.50
2022-11-22T06:20:06.060Z,12.50
2022-11-22T06:22:34.699Z,12.50
2022-11-22T06:25:03.237Z,12.50
2022-11-22T06:27:31.397Z,12.50
2022-11-22T06:29:59.864Z,12.50
2022-11-22T06:32:28.104Z,12.50
2022-11-22T06:34:56.507Z,12.50
2022-11-22T06:37:26.064Z,12.50
2022-11-22T06:39:54.560Z,12.50
2022-11-22T06:42:22.616Z,12.50
2022-11-22T06:44:50.965Z,12.50
2022-11-22T06:47:19.057Z,12.50
2022-11-22T06:49:47.781Z,12.50
2022-11-22T06:52:15.788Z,12.50
2022-11-22T06:54:45.641Z,12.50
2022-11-22T06:57:14.650Z,12.60
2022-11-22T06:59:43.193Z,12.60
2022-11-22T07:02:12.487Z,12.60
2022-11-22T07:05:02.405Z,12.60
2022-11-22T07:07:28.528Z,12.60
2022-11-22T07:09:58.051Z,12.60
2022-11-22T07:12:26.513Z,12.60
2022-11-22T07:14:54.535Z,12.60
2022-11-22T07:17:22.650Z,12.60
2022-11-22T07:19:50.703Z,12.60
2022-11-22T07:22:19.113Z,12.60
2022-11-22T07:24:47.114Z,12.60
2022-11-22T07:27:17.456Z,12.60
2022-11-22T07:29:45.564Z,12.60
2022-11-22T07:32:14.062Z,12.60
2022-11-22T07:34:42.187Z,12.60
2022-11-22T07:37:10.761Z,12.60
2022-11-22T07:39:39.081Z,12.70
2022-11-22T07:42:07.215Z,12.70
2022-11-22T07:44:37.148Z,12.70
2022-11-22T07:47:05.331Z,12.70
2022-11-22T07:49:33.949Z,12.70
2022-11-22T07:52:02.028Z,12.70
2022-11-22T07:54:30.098Z,12.70
2022-11-22T07:56:58.123Z,12.80
2022-11-22T07:59:26.728Z,12.70
2022-11-22T08:01:56.094Z,12.80
2022-11-22T08:04:24.616Z,12.80
2022-11-22T08:06:52.715Z,12.80
2022-11-22T08:09:21.266Z,12.80
2022-11-22T08:11:49.327Z,12.80
2022-11-22T08:14:17.664Z,12.80
2022-11-22T08:16:45.650Z,12.80
2022-11-22T08:19:18.326Z,12.90
2022-11-22T08:21:46.357Z,12.90
2022-11-22T08:24:14.429Z,12.90
2022-11-22T08:26:42.255Z,12.90
2022-11-22T08:29:14.375Z,12.90
2022-11-22T08:31:42.513Z,12.90
2022-11-22T08:34:10.937Z,12.90
2022-11-22T08:36:40.496Z,12.90
2022-11-22T08:39:09.206Z,12.90
2022-11-22T08:41:37.484Z,12.90
2022-11-22T08:44:06.144Z,13.00
2022-11-22T08:46:34.013Z,13.00
2022-11-22T08:49:03.801Z,13.00
2022-11-22T08:51:32.202Z,13.00
2022-11-22T08:54:01.301Z,13.00
2022-11-22T08:56:29.640Z,13.00
2022-11-22T08:58:57.531Z,13.10
2022-11-22T09:01:25.872Z,13.00
2022-11-22T09:03:53.702Z,13.10
2022-11-22T09:11:59.032Z,13.10
2022-11-22T09:14:26.831Z,13.00
2022-11-22T09:16:55.174Z,13.10
2022-11-22T09:19:22.919Z,13.10
2022-11-22T09:21:50.667Z,13.10
2022-11-22T09:24:19.752Z,13.10
2022-11-22T09:26:48.054Z,13.10
2022-11-22T09:29:16.419Z,13.10
2022-11-22T09:31:44.561Z,13.20
2022-11-22T09:34:12.615Z,13.20
2022-11-22T09:36:41.103Z,13.20
2022-11-22T09:39:10.103Z,13.20
2022-11-22T09:42:06.580Z,13.30
2022-11-22T09:44:45.502Z,13.30
2022-11-22T09:47:19.000Z,13.30
2022-11-22T09:49:52.256Z,13.40
2022-11-22T09:52:24.262Z,13.40
2022-11-22T09:54:53.150Z,13.40
2022-11-22T09:57:24.138Z,13.50
2022-11-22T10:00:03.325Z,13.50
2022-11-22T10:02:43.479Z,13.60
2022-11-22T10:05:25.276Z,13.60
2022-11-22T10:07:56.784Z,13.70
2022-11-22T10:10:27.419Z,13.80
2022-11-22T10:12:58.501Z,13.90
2022-11-22T10:15:29.415Z,14.00
2022-11-22T10:17:58.150Z,14.20
2022-11-22T10:20:27.837Z,14.40
2022-11-22T10:22:55.655Z,14.60
2022-11-22T10:25:24.040Z,14.80
2022-11-22T10:28:11.782Z,14.90
2022-11-22T10:30:41.710Z,15.10
2022-11-22T10:33:13.297Z,15.30
2022-11-22T10:35:52.464Z,15.40
2022-11-22T10:38:46.915Z,15.50
2022-11-22T10:41:28.527Z,15.50
2022-11-22T10:44:04.509Z,15.50
2022-11-22T10:46:36.383Z,15.60
2022-11-22T10:49:07.119Z,15.70
2022-11-22T10:51:39.559Z,15.70
2022-11-22T10:54:15.609Z,15.80
2022-11-22T10:56:50.445Z,16.00
2022-11-22T10:59:34.527Z,16.20
2022-11-22T11:02:05.171Z,16.40
2022-11-22T11:04:33.617Z,16.70
2022-11-22T11:07:17.196Z,17.00
2022-11-22T11:10:10.314Z,17.40
2022-11-22T11:12:38.634Z,17.80
2022-11-22T11:15:15.934Z,18.20
2022-11-22T11:17:44.478Z,18.50
2022-11-22T11:20:17.226Z,18.80
2022-11-22T11:23:13.107Z,19.00
2022-11-22T11:25:34.750Z,19.20
2022-11-22T11:28:04.357Z,19.60
2022-11-22T11:30:40.998Z,19.80
2022-11-22T11:33:18.121Z,19.80
2022-11-22T11:35:46.504Z,20.00
2022-11-22T11:38:31.676Z,20.20
2022-11-22T11:41:00.408Z,20.30
2022-11-22T11:43:28.348Z,20.60
2022-11-22T11:46:05.438Z,20.80
2022-11-22T11:48:37.606Z,21.00
2022-11-22T11:51:10.134Z,21.30
2022-11-22T11:53:37.889Z,21.50
2022-11-22T11:56:30.156Z,21.80
2022-11-22T11:58:58.374Z,22.00
2022-11-22T12:01:27.764Z,22.20
2022-11-22T12:03:57.220Z,22.40
2022-11-22T12:06:29.322Z,22.60
2022-11-22T12:08:57.965Z,22.80
2022-11-22T12:11:31.859Z,22.90
2022-11-22T12:14:19.542Z,23.10
2022-11-22T12:16:50.127Z,23.30
2022-11-22T12:19:25.078Z,23.40
2022-11-22T12:21:58.656Z,23.60
2022-11-22T12:24:52.215Z,23.80
2022-11-22T12:27:16.392Z,23.90
2022-11-22T12:29:44.964Z,24.00
2022-11-22T12:32:17.132Z,24.20
2022-11-22T12:34:50.214Z,24.30
2022-11-22T12:37:18.678Z,24.40
2022-11-22T12:39:49.280Z,24.30
2022-11-22T12:42:22.995Z,24.30
2022-11-22T12:44:55.032Z,24.10
2022-11-22T12:47:26.816Z,23.90
2022-11-22T12:49:56.372Z,23.60
2022-11-22T12:52:25.284Z,23.30
2022-11-22T12:54:59.883Z,23.00
2022-11-22T12:57:33.820Z,22.70
2022-11-22T13:00:05.718Z,22.40
2022-11-22T13:02:37.887Z,22.20
2022-11-22T13:05:07.494Z,22.00
2022-11-22T13:07:44.906Z,21.90
2022-11-22T13:10:19.294Z,21.80
2022-11-22T13:12:47.310Z,21.60
2022-11-22T13:15:15.948Z,21.60
2022-11-22T13:17:45.432Z,21.80
2022-11-22T13:20:17.054Z,21.70
2022-11-22T13:22:49.814Z,21.60
2022-11-22T13:25:32.637Z,21.40
2022-11-22T13:28:01.533Z,21.10
2022-11-22T13:30:31.105Z,20.90
2022-11-22T13:33:01.375Z,20.80
2022-11-22T13:35:32.413Z,20.50
2022-11-22T13:38:02.684Z,20.40
2022-11-22T13:40:31.713Z,20.30
2022-11-22T13:43:54.889Z,20.20
2022-11-22T13:46:57.214Z,20.10
2022-11-22T13:49:37.978Z,19.90
2022-11-22T13:52:29.927Z,19.70
2022-11-22T13:55:03.283Z,19.60
2022-11-22T13:57:35.715Z,19.50
2022-11-22T14:00:46.380Z,19.50
2022-11-22T14:03:37.634Z,19.40
2022-11-22T14:06:29.166Z,19.30
2022-11-22T14:09:28.152Z,19.20
2022-11-22T14:12:13.122Z,19.00
2022-11-22T14:14:43.457Z,19.00
2022-11-22T14:17:15.673Z,18.90
2022-11-22T14:19:52.503Z,18.90
2022-11-22T14:22:26.566Z,18.80
2022-11-22T14:25:05.350Z,18.70
2022-11-22T14:27:37.962Z,18.70
2022-11-22T14:30:09.619Z,18.60
2022-11-22T14:32:43.178Z,18.60
2022-11-22T14:35:29.184Z,18.50
2022-11-22T14:38:21.040Z,18.50
2022-11-22T14:40:49.462Z,18.40
2022-11-22T14:43:29.418Z,18.40
2022-11-22T14:46:00.991Z,18.40
2022-11-22T14:48:31.867Z,18.30
2022-11-22T14:51:03.331Z,18.30
2022-11-22T14:53:35.896Z,18.30
2022-11-22T14:56:16.699Z,18.20
2022-11-22T14:58:59.291Z,18.20
2022-11-22T15:01:40.643Z,18.10
2022-11-22T15:09:10.288Z,18.10
2022-11-22T15:09:14.903Z,18.10
2022-11-22T15:11:26.449Z,18.00
2022-11-22T15:14:10.336Z,18.00
2022-11-22T15:57:30.059Z,17.50
2022-11-22T15:59:57.731Z,17.50
2022-11-22T16:02:30.244Z,17.40
2022-11-22T16:06:06.459Z,17.40
2022-11-22T16:07:49.502Z,17.40
2022-11-22T16:10:20.389Z,17.30
2022-11-22T16:12:48.531Z,17.30
2022-11-22T16:15:28.258Z,17.30
2022-11-22T16:18:02.933Z,17.30
2022-11-22T16:20:32.730Z,17.30
2022-11-22T16:23:25.061Z,17.30
2022-11-22T16:25:55.502Z,17.30
2022-11-22T16:28:28.148Z,17.20
2022-11-22T16:30:57.521Z,17.20
2022-11-22T16:33:27.084Z,17.20
2022-11-22T16:35:56.175Z,17.20
2022-11-22T16:38:24.428Z,17.20
2022-11-22T16:40:52.368Z,17.20
2022-11-22T16:43:21.942Z,17.20
2022-11-22T16:45:50.051Z,17.10
2022-11-22T16:48:34.586Z,17.10
2022-11-22T16:51:07.673Z,17.10
2022-11-22T16:53:39.591Z,17.10
2022-11-22T16:56:08.113Z,17.00
2022-11-22T16:58:36.492Z,17.00
2022-11-22T17:01:04.512Z,17.00
2022-11-22T17:03:33.854Z,17.00
2022-11-22T17:06:01.796Z,17.00
2022-11-22T17:08:31.441Z,16.90
2022-11-22T17:10:59.899Z,16.90
2022-11-22T17:13:28.500Z,16.90
2022-11-22T17:15:57.086Z,16.90
2022-11-22T17:18:25.426Z,16.90
2022-11-22T17:20:53.437Z,16.90
2022-11-22T17:23:23.867Z,16.80
2022-11-22T17:25:53.548Z,16.80
2022-11-22T17:28:21.535Z,16.80
2022-11-22T17:30:49.866Z,16.80
2022-11-22T17:33:17.782Z,16.80
2022-11-22T17:35:45.810Z,16.80
2022-11-22T17:38:13.745Z,16.70
2022-11-22T17:40:41.668Z,16.70
2022-11-22T17:43:11.260Z,16.70
2022-11-22T17:45:42.974Z,16.80
2022-11-22T17:48:11.000Z,16.80
2022-11-22T17:50:40.534Z,16.80
2022-11-22T17:53:08.358Z,16.80
2022-11-22T17:56:02.720Z,16.80
2022-11-22T17:58:25.528Z,16.80
2022-11-22T18:00:53.591Z,16.70
2022-11-22T18:03:21.587Z,16.80
2022-11-22T18:05:49.649Z,16.70
2022-11-22T18:08:17.533Z,16.70
2022-11-22T18:10:45.700Z,16.70
2022-11-22T18:13:21.425Z,16.70
2022-11-22T18:15:52.932Z,16.70
2022-11-22T18:18:48.450Z,16.70
2022-11-22T18:21:14.068Z,16.70
2022-11-22T18:23:45.516Z,16.70
2022-11-22T18:31:52.512Z,16.60
2022-11-22T18:34:21.054Z,16.70
2022-11-22T18:36:55.261Z,16.60
2022-11-22T18:39:23.773Z,16.60
2022-11-22T18:41:51.692Z,16.60
2022-11-22T18:44:19.712Z,16.60
2022-11-22T18:46:47.975Z,16.60
2022-11-22T18:49:17.447Z,16.60
2022-11-22T18:51:45.260Z,16.60
2022-11-22T18:54:13.755Z,16.60
2022-11-22T18:56:41.533Z,16.60
2022-11-22T18:59:12.788Z,16.60
2022-11-22T19:01:41.101Z,16.50
2022-11-22T19:04:09.217Z,16.50
2022-11-22T19:06:38.708Z,16.50
2022-11-22T19:09:07.090Z,16.50
2022-11-22T19:11:35.489Z,16.50
2022-11-22T19:14:03.519Z,16.50
2022-11-22T19:16:31.577Z,16.50
2022-11-22T19:18:59.489Z,16.50
2022-11-22T19:21:28.890Z,16.50
2022-11-22T19:23:58.336Z,16.50
2022-11-22T19:26:27.302Z,16.40
2022-11-22T19:28:56.293Z,16.40
2022-11-22T19:31:25.744Z,16.40
2022-11-22T19:33:53.668Z,16.40
2022-11-22T19:36:26.406Z,16.30
2022-11-22T19:39:00.121Z,16.40
2022-11-22T19:41:28.565Z,16.30
2022-11-22T19:43:56.994Z,16.30
2022-11-22T19:46:25.077Z,16.30
2022-11-22T19:48:53.119Z,16.30
2022-11-22T19:51:21.353Z,16.30
2022-11-22T19:53:49.772Z,16.30
2022-11-22T19:56:19.701Z,16.30
2022-11-22T19:58:51.087Z,16.30
2022-11-22T20:01:19.368Z,16.30
2022-11-22T20:03:47.660Z,16.30
2022-11-22T20:06:15.670Z,16.30
2022-11-22T20:08:44.283Z,16.30
2022-11-22T20:11:13.118Z,16.30
2022-11-22T20:13:43.761Z,16.30
2022-11-22T20:16:13.580Z,16.30
2022-11-22T20:18:41.602Z,16.30
2022-11-22T20:21:10.009Z,16.20
2022-11-22T20:23:38.406Z,16.20
2022-11-22T20:26:09.237Z,16.20
2022-11-22T20:28:37.240Z,16.20
2022-11-22T20:31:07.870Z,16.20
2022-11-22T20:33:36.009Z,16.20
2022-11-22T20:36:05.335Z,16.20
2022-11-22T20:38:34.144Z,16.20
2022-11-22T20:41:02.205Z,16.10
2022-11-22T20:43:31.552Z,16.20
2022-11-22T20:46:02.916Z,16.20
2022-11-22T20:48:32.272Z,16.20
2022-11-22T20:51:00.134Z,16.10
2022-11-22T20:53:28.143Z,16.20
2022-11-22T20:55:56.268Z,16.20
2022-11-22T20:58:25.933Z,16.20
2022-11-22T21:00:53.924Z,16.20
2022-11-22T21:03:22.332Z,16.20
2022-11-22T21:05:53.401Z,16.10
2022-11-22T21:08:21.152Z,16.10
2022-11-22T21:10:48.846Z,16.10
2022-11-22T21:13:18.621Z,16.00
2022-11-22T21:15:46.699Z,16.10
2022-11-22T21:18:25.056Z,16.10
2022-11-22T21:20:55.161Z,16.10
2022-11-22T21:23:22.990Z,16.10
2022-11-22T21:25:51.779Z,16.10
2022-11-22T21:28:20.136Z,16.10
2022-11-22T21:30:48.021Z,16.10
2022-11-22T21:33:15.979Z,16.10
2022-11-22T21:35:45.767Z,16.10
2022-11-22T21:38:15.753Z,16.10
2022-11-22T21:40:51.052Z,16.10
2022-11-22T21:43:19.336Z,16.10
2022-11-22T21:45:47.218Z,16.10
2022-11-22T21:48:15.121Z,16.10
2022-11-22T21:50:43.174Z,16.00
2022-11-22T21:53:11.613Z,16.10
2022-11-22T21:55:48.738Z,16.10
2022-11-22T21:58:16.714Z,16.00
2022-11-22T22:00:45.237Z,16.00
2022-11-22T22:03:13.469Z,16.00
2022-11-22T22:05:41.395Z,16.00
2022-11-22T22:08:09.336Z,16.00
2022-11-22T22:10:37.281Z,16.00
2022-11-22T22:13:06.587Z,16.00
2022-11-22T22:15:34.541Z,16.00
2022-11-22T22:18:03.553Z,16.00
2022-11-22T22:20:31.452Z,16.00
2022-11-22T22:22:59.376Z,16.00
2022-11-22T22:25:27.250Z,16.00
2022-11-22T22:27:56.880Z,16.00
2022-11-22T22:30:26.194Z,16.00
2022-11-22T22:32:54.151Z,16.00
2022-11-22T22:35:23.165Z,16.00
2022-11-22T22:37:51.023Z,16.00
2022-11-22T22:40:18.978Z,16.00
2022-11-22T22:42:46.969Z,16.00
2022-11-22T22:45:15.447Z,16.00
2022-11-22T22:47:46.231Z,16.00
2022-11-22T22:50:14.457Z,15.90
2022-11-22T22:52:42.420Z,16.00
2022-11-22T22:55:10.813Z,16.00
2022-11-22T22:57:39.073Z,16.00
2022-11-22T23:00:07.963Z,16.00
2022-11-22T23:02:36.858Z,16.00
2022-11-22T23:05:07.077Z,16.00
2022-11-22T23:07:34.816Z,16.00
2022-11-22T23:10:02.533Z,16.00
2022-11-22T23:12:30.298Z,16.00
2022-11-22T23:14:57.994Z,15.90
2022-11-22T23:17:26.273Z,16.00
2022-11-22T23:19:54.143Z,16.00
2022-11-22T23:22:25.918Z,16.00
2022-11-22T23:24:54.120Z,16.00
2022-11-22T23:27:22.499Z,16.00
2022-11-22T23:29:50.416Z,16.00
2022-11-22T23:32:18.419Z,16.00
2022-11-22T23:34:46.646Z,16.00
2022-11-22T23:37:14.378Z,16.00
2022-11-22T23:39:44.089Z,16.00
2022-11-22T23:42:12.134Z,16.00
2022-11-22T23:44:40.107Z,16.00
2022-11-22T23:47:08.327Z,16.00
2022-11-22T23:49:36.420Z,16.00
2022-11-22T23:52:04.287Z,16.00
2022-11-22T23:54:32.765Z,16.00
2022-11-22T23:57:02.252Z,16.00
2022-11-22T23:59:30.410Z,16.00
